Time;durP1;ratioP1;P1;durP2;ratioP2;P2;SDS_P1;SDS_P2;PMS_P1;PMS_P2;Temp;Humidity;BMP_temperature;BMP_pressure;BME280_temperature;BME280_humidity;BME280_pressure;Samples;Min_cycle;Max_cycle;Signal;HPM_P1;HPM_P2
2021/07/08 00:01:12;;;;;;;14.23;6.00;;;;;;;21.35;73.96;100979.05;126376;1099;104137;-77
2021/07/08 00:03:43;;;;;;;10.93;6.10;;;;;;;21.33;74.05;100976.37;126374;1099;104143;-77
2021/07/08 00:06:14;;;;;;;17.43;6.33;;;;;;;21.33;74.83;100976.37;126255;1099;104200;-77
2021/07/08 00:08:45;;;;;;;14.27;6.13;;;;;;;21.33;74.23;100975.46;126283;1099;104134;-77
2021/07/08 00:11:16;;;;;;;15.77;6.60;;;;;;;21.33;75.30;100967.45;126333;1099;104452;-76
2021/07/08 00:13:48;;;;;;;13.03;5.93;;;;;;;21.34;75.14;100970.13;126292;1099;104198;-77
2021/07/08 00:16:19;;;;;;;11.30;5.80;;;;;;;21.32;75.17;100976.37;126349;1099;104196;-76
2021/07/08 00:18:52;;;;;;;14.87;6.37;;;;;;;21.30;75.08;100975.47;126258;1099;104136;-77
2021/07/08 00:21:24;;;;;;;13.68;6.22;;;;;;;21.29;74.71;100974.59;126309;1099;104168;-76
2021/07/08 00:23:55;;;;;;;12.80;5.90;;;;;;;21.27;75.02;100980.80;126312;1099;104217;-76
2021/07/08 00:26:26;;;;;;;12.00;5.93;;;;;;;21.23;75.81;100968.38;126341;1099;104640;-76
2021/07/08 00:28:57;;;;;;;10.03;5.80;;;;;;;21.19;75.17;100976.38;126271;1099;104143;-76
2021/07/08 00:31:30;;;;;;;12.67;6.27;;;;;;;21.17;75.22;100971.92;126315;1099;104214;-76
2021/07/08 00:34:02;;;;;;;11.75;6.10;;;;;;;21.14;75.62;100964.80;126333;1098;104254;-77
2021/07/08 00:36:33;;;;;;;12.80;6.67;;;;;;;21.12;75.04;100968.38;126315;1099;104213;-77
2021/07/08 00:39:06;;;;;;;12.70;6.20;;;;;;;21.05;75.54;100964.83;126303;1098;104184;-76
2021/07/08 00:41:36;;;;;;;14.77;6.30;;;;;;;21.00;75.64;100974.59;126359;1097;104194;-77
2021/07/08 00:44:08;;;;;;;12.80;6.30;;;;;;;20.95;75.69;100974.59;126351;1099;104140;-76
2021/07/08 00:46:41;;;;;;;12.13;5.87;;;;;;;20.92;75.87;100979.92;126295;1099;104140;-76
2021/07/08 00:49:12;;;;;;;12.83;6.37;;;;;;;20.90;76.69;100972.83;126246;1099;104172;-76
2021/07/08 00:51:42;;;;;;;11.45;6.25;;;;;;;20.87;76.39;100981.70;126294;1099;104303;-76
2021/07/08 00:54:15;;;;;;;11.17;6.13;;;;;;;20.85;76.06;100977.25;126313;1099;104235;-77
2021/07/08 00:56:45;;;;;;;10.03;5.57;;;;;;;20.83;75.78;100986.16;126325;1099;104221;-77
2021/07/08 00:59:16;;;;;;;8.93;5.70;;;;;;;20.85;76.28;100987.91;126280;1099;104265;-77
2021/07/08 01:01:47;;;;;;;13.50;5.57;;;;;;;20.85;75.96;100993.25;126306;1097;104169;-76
2021/07/08 01:04:18;;;;;;;13.60;5.70;;;;;;;20.83;76.29;100980.83;126339;1099;104152;-76
2021/07/08 01:06:50;;;;;;;15.90;6.00;;;;;;;20.81;76.74;100981.70;126360;1099;104188;-76
2021/07/08 01:09:20;;;;;;;11.40;5.80;;;;;;;20.78;76.33;100982.57;126274;1099;104252;-77
2021/07/08 01:11:51;;;;;;;9.87;5.50;;;;;;;20.76;76.30;100989.69;126300;1098;104267;-76
2021/07/08 01:14:22;;;;;;;13.27;6.17;;;;;;;20.73;76.79;100987.02;126306;1099;104175;-76
2021/07/08 01:16:52;;;;;;;10.90;5.53;;;;;;;20.72;77.19;100989.68;126357;1099;104233;-76
2021/07/08 01:19:24;;;;;;;15.13;6.10;;;;;;;20.68;77.55;100988.80;126304;1099;104169;-76
2021/07/08 01:21:54;;;;;;;15.60;6.30;;;;;;;20.66;76.65;100987.88;126317;1099;104340;-77
2021/07/08 01:24:25;;;;;;;11.80;5.77;;;;;;;20.65;76.73;100991.45;126323;1099;104213;-76
2021/07/08 01:26:58;;;;;;;10.53;5.83;;;;;;;20.66;77.81;100990.55;126330;1099;104143;-76
2021/07/08 01:29:29;;;;;;;14.53;6.07;;;;;;;20.66;77.41;100990.55;126299;1099;104146;-76
2021/07/08 01:32:00;;;;;;;13.57;5.80;;;;;;;20.66;76.87;100998.55;126319;1099;104233;-76
2021/07/08 01:34:31;;;;;;;10.97;5.70;;;;;;;20.64;77.29;100989.63;126307;1099;104162;-77
2021/07/08 01:37:02;;;;;;;12.87;5.60;;;;;;;20.62;77.66;100989.63;126334;1099;104136;-77
2021/07/08 01:39:33;;;;;;;11.60;5.93;;;;;;;20.68;77.56;100990.55;126287;1099;104152;-76
2021/07/08 01:42:05;;;;;;;13.80;6.00;;;;;;;20.74;77.77;100991.48;126368;1099;104140;-76
2021/07/08 01:44:35;;;;;;;13.67;5.97;;;;;;;20.73;77.67;101000.35;126351;1099;104235;-76
2021/07/08 01:47:07;;;;;;;12.27;5.67;;;;;;;20.70;77.16;101000.34;126335;1099;104293;-77
2021/07/08 01:49:39;;;;;;;12.30;5.93;;;;;;;20.69;77.00;101003.89;126306;1099;104185;-77
2021/07/08 01:52:12;;;;;;;11.90;6.20;;;;;;;20.69;77.96;101000.34;126300;1099;104296;-77
2021/07/08 01:54:45;;;;;;;13.30;5.80;;;;;;;20.70;78.38;101000.34;126284;1099;104185;-77
2021/07/08 01:57:16;;;;;;;11.27;6.00;;;;;;;20.76;77.27;101000.36;126337;1099;104137;-77
2021/07/08 01:59:46;;;;;;;10.77;6.00;;;;;;;20.79;77.37;100997.70;126256;1098;105489;-77
2021/07/08 02:02:17;;;;;;;12.13;5.67;;;;;;;20.79;78.05;101000.36;126360;1099;104785;-77
2021/07/08 02:04:50;;;;;;;11.63;5.57;;;;;;;20.78;77.30;101001.23;126313;1099;104236;-76
2021/07/08 02:07:23;;;;;;;12.43;6.17;;;;;;;20.76;77.29;101008.36;126333;1099;104275;-76
2021/07/08 02:09:55;;;;;;;14.30;6.07;;;;;;;20.77;77.37;101012.81;126315;1098;104169;-76
2021/07/08 02:12:25;;;;;;;13.00;6.33;;;;;;;20.75;78.20;101019.02;126234;1099;104374;-76
2021/07/08 02:14:56;;;;;;;13.73;6.03;;;;;;;20.72;77.98;101019.89;126356;1099;104162;-76
2021/07/08 02:17:27;;;;;;;10.37;5.70;;;;;;;20.73;77.95;101019.02;126334;1099;104149;-76
2021/07/08 02:19:58;;;;;;;13.77;5.87;;;;;;;20.75;78.62;101025.23;126278;1099;104150;-76
2021/07/08 02:22:29;;;;;;;16.07;6.10;;;;;;;20.72;77.60;101027.89;126342;1098;104664;-76
2021/07/08 02:25:00;;;;;;;11.57;5.80;;;;;;;20.70;77.86;101031.47;126306;1099;104390;-76
2021/07/08 02:27:30;;;;;;;13.63;6.20;;;;;;;20.68;78.39;101038.55;126336;1099;104220;-78
2021/07/08 02:30:01;;;;;;;10.13;6.10;;;;;;;20.69;78.18;101035.89;126240;1099;104133;-76
2021/07/08 02:32:32;;;;;;;13.30;6.07;;;;;;;20.64;78.80;101035.88;126320;1099;104216;-76
2021/07/08 02:35:03;;;;;;;11.20;6.07;;;;;;;20.58;77.77;101034.94;126352;1099;104166;-76
2021/07/08 02:37:35;;;;;;;15.03;6.70;;;;;;;20.52;78.47;101042.92;126263;1098;104291;-77
2021/07/08 02:40:08;;;;;;;12.50;6.40;;;;;;;20.47;78.23;101041.15;126322;1099;104137;-76
2021/07/08 02:42:40;;;;;;;18.30;6.37;;;;;;;20.43;78.23;101050.00;126322;1099;112053;-76
2021/07/08 02:45:11;;;;;;;13.03;6.43;;;;;;;20.42;79.28;101050.87;126324;1098;104159;-77
2021/07/08 02:47:43;;;;;;;14.67;6.93;;;;;;;20.40;78.19;101051.78;126341;1098;104194;-77
2021/07/08 02:50:15;;;;;;;11.53;6.27;;;;;;;20.37;79.43;101049.98;126280;1099;104871;-76
2021/07/08 02:52:48;;;;;;;13.20;6.30;;;;;;;20.36;79.02;101058.84;126276;1099;104201;-76
2021/07/08 02:55:19;;;;;;;11.83;6.25;;;;;;;20.34;79.30;101057.08;126251;1099;104485;-77
2021/07/08 02:57:50;;;;;;;11.37;6.50;;;;;;;20.32;79.10;101057.08;126309;1099;104628;-77
2021/07/08 03:00:24;;;;;;;13.40;7.07;;;;;;;20.31;79.52;101055.28;126369;1099;104140;-76
2021/07/08 03:02:55;;;;;;;15.63;6.80;;;;;;;20.29;78.93;101054.39;126157;1099;105393;-75
2021/07/08 03:05:27;;;;;;;15.30;7.30;;;;;;;20.28;78.78;101065.93;126275;1099;104118;-76
2021/07/08 03:07:58;;;;;;;16.93;7.47;;;;;;;20.27;78.71;101064.14;126330;1099;104162;-76
2021/07/08 03:10:32;;;;;;;14.43;7.00;;;;;;;20.25;78.92;101057.92;126345;1099;104149;-76
2021/07/08 03:13:03;;;;;;;12.90;6.85;;;;;;;20.22;79.36;101058.78;126223;1098;104142;-76
2021/07/08 03:15:34;;;;;;;13.90;7.00;;;;;;;20.24;79.80;101058.79;126320;1099;104143;-76
2021/07/08 03:18:05;;;;;;;11.43;6.47;;;;;;;20.25;79.13;101060.58;126337;1099;104201;-76
2021/07/08 03:20:37;;;;;;;13.33;6.97;;;;;;;20.27;79.09;101067.71;126306;1099;104146;-76
2021/07/08 03:23:08;;;;;;;11.87;6.80;;;;;;;20.28;80.05;101060.59;126313;1099;104217;-77
2021/07/08 03:25:39;;;;;;;14.67;7.80;;;;;;;20.31;79.90;101065.06;126342;1099;104206;-75
2021/07/08 03:28:10;;;;;;;11.53;7.10;;;;;;;20.32;79.55;101065.07;126281;1098;104146;-76
2021/07/08 03:30:40;;;;;;;13.93;7.17;;;;;;;20.35;79.82;101067.75;126320;1099;104604;-76
2021/07/08 03:33:11;;;;;;;16.93;7.37;;;;;;;20.37;80.03;101071.30;126274;1099;104134;-77
2021/07/08 03:35:42;;;;;;;14.53;7.13;;;;;;;20.39;80.12;101069.52;126373;1099;104217;-77
2021/07/08 03:38:12;;;;;;;13.97;7.10;;;;;;;20.42;80.13;101069.54;126304;1098;104227;-76
2021/07/08 03:40:43;;;;;;;17.03;7.37;;;;;;;20.46;79.96;101067.80;126289;1099;104140;-78
2021/07/08 03:43:14;;;;;;;15.57;7.27;;;;;;;20.51;80.33;101073.15;126292;1099;104201;-77
2021/07/08 03:45:44;;;;;;;18.57;7.20;;;;;;;20.53;80.12;101079.37;126338;1099;104137;-76
2021/07/08 03:48:16;;;;;;;19.60;8.03;;;;;;;20.56;80.34;101076.71;126316;1099;104364;-77
2021/07/08 03:50:47;;;;;;;15.47;7.53;;;;;;;20.59;79.37;101082.94;126281;1099;104225;-76
2021/07/08 03:53:18;;;;;;;15.83;7.37;;;;;;;20.63;80.14;101089.16;126222;1097;104300;-76
2021/07/08 03:55:48;;;;;;;15.30;7.13;;;;;;;20.65;80.28;101085.66;126349;1098;104146;-77
2021/07/08 03:58:19;;;;;;;14.23;7.33;;;;;;;20.68;80.13;101082.13;126334;1099;104150;-76
2021/07/08 04:00:51;;;;;;;15.53;7.67;;;;;;;20.71;80.41;101082.13;126374;1099;104147;-77
2021/07/08 04:03:27;;;;;;;14.23;7.17;;;;;;;20.75;79.31;101086.57;126296;1099;104612;-76
2021/07/08 04:05:58;;;;;;;17.17;7.57;;;;;;;20.79;79.49;101091.04;126298;1099;104155;-76
2021/07/08 04:08:29;;;;;;;17.23;7.37;;;;;;;20.82;79.60;101091.05;126337;1099;104139;-76
2021/07/08 04:11:00;;;;;;;16.63;7.40;;;;;;;20.86;79.86;101083.05;126297;1099;104241;-76
2021/07/08 04:13:30;;;;;;;18.95;8.40;;;;;;;20.90;79.88;101095.52;126349;1099;104175;-76
2021/07/08 04:16:01;;;;;;;16.97;7.13;;;;;;;20.92;79.39;101093.74;126349;1099;104216;-75
2021/07/08 04:18:32;;;;;;;16.93;7.37;;;;;;;20.97;79.40;101097.30;126289;1099;104156;-76
2021/07/08 04:21:03;;;;;;;17.50;7.57;;;;;;;21.02;79.81;101098.23;126357;1099;104134;-76
2021/07/08 04:23:33;;;;;;;15.90;7.50;;;;;;;21.05;79.76;101087.56;126288;1099;104288;-77
2021/07/08 04:26:05;;;;;;;16.57;7.30;;;;;;;21.11;79.77;101098.21;126365;1097;104217;-76
2021/07/08 04:28:37;;;;;;;17.43;8.10;;;;;;;21.14;79.75;101103.55;126311;1099;104162;-76
2021/07/08 04:31:09;;;;;;;16.50;7.30;;;;;;;21.19;79.10;101103.56;126333;1098;104147;-76
2021/07/08 04:33:40;;;;;;;18.93;7.33;;;;;;;21.24;79.54;101099.14;126291;1099;104137;-77
2021/07/08 04:36:12;;;;;;;18.03;8.10;;;;;;;21.29;79.23;101107.16;126317;1099;104136;-77
2021/07/08 04:38:46;;;;;;;17.63;8.10;;;;;;;21.35;79.88;101101.83;126282;1099;104178;-76
2021/07/08 04:41:17;;;;;;;16.47;8.00;;;;;;;21.39;79.36;101098.25;126326;1097;104165;-76
2021/07/08 04:43:48;;;;;;;16.30;7.67;;;;;;;21.44;79.13;101104.50;126172;1099;104300;-75
2021/07/08 04:46:19;;;;;;;15.10;7.40;;;;;;;21.49;79.82;101101.87;126281;1098;104242;-77
2021/07/08 04:48:52;;;;;;;19.50;8.40;;;;;;;21.51;79.21;101102.75;126316;1099;104249;-77
2021/07/08 04:51:23;;;;;;;16.47;8.07;;;;;;;21.57;78.87;101109.89;126329;1098;104264;-77
2021/07/08 04:53:54;;;;;;;18.40;8.35;;;;;;;21.63;79.58;101115.19;126205;1099;104266;-77
2021/07/08 04:56:25;;;;;;;17.03;7.93;;;;;;;21.68;78.88;101108.97;126247;1099;104255;-78
2021/07/08 04:58:56;;;;;;;19.37;8.43;;;;;;;21.73;79.43;101108.97;126275;1099;104134;-79
2021/07/08 05:01:26;;;;;;;18.67;8.57;;;;;;;21.79;78.85;101114.31;126288;1099;104139;-78
2021/07/08 05:04:00;;;;;;;16.40;8.30;;;;;;;21.87;78.67;101120.52;126248;1099;103996;-78
2021/07/08 05:06:31;;;;;;;18.97;8.53;;;;;;;21.95;78.71;101120.52;126238;1099;104130;-79
2021/07/08 05:09:02;;;;;;;15.50;8.43;;;;;;;22.01;78.74;101114.28;126221;1099;104297;-78
2021/07/08 05:11:35;;;;;;;14.53;8.10;;;;;;;22.04;78.02;101117.83;126266;1099;104131;-78
2021/07/08 05:14:08;;;;;;;18.97;8.07;;;;;;;22.10;78.69;101114.27;126277;1099;105798;-77
2021/07/08 05:16:41;;;;;;;17.80;8.20;;;;;;;22.14;78.62;101116.02;126326;1099;104159;-78
2021/07/08 05:19:11;;;;;;;16.70;7.90;;;;;;;22.17;78.15;101116.02;126196;1099;104306;-77
2021/07/08 05:21:49;;;;;;;18.60;7.70;;;;;;;22.22;78.25;101130.28;126221;1097;104175;-77
2021/07/08 05:24:21;;;;;;;18.00;8.10;;;;;;;22.30;77.90;101122.27;126220;1099;104258;-78
2021/07/08 05:26:53;;;;;;;18.57;8.40;;;;;;;22.36;77.79;101126.69;126252;1099;104152;-77
2021/07/08 05:29:26;;;;;;;16.20;8.50;;;;;;;22.40;77.25;101128.47;126271;1099;104217;-78
2021/07/08 05:31:58;;;;;;;15.07;8.13;;;;;;;22.46;78.00;101133.80;126261;1099;104139;-77
2021/07/08 05:34:29;;;;;;;16.87;7.83;;;;;;;22.52;77.83;101125.77;126186;1099;104419;-78
2021/07/08 05:37:01;;;;;;;16.20;7.70;;;;;;;22.59;77.56;101127.53;126262;1099;104150;-77
2021/07/08 05:39:36;;;;;;;22.13;7.27;;;;;;;22.68;78.03;101126.58;126233;1099;104171;-77
2021/07/08 05:42:09;;;;;;;12.27;6.97;;;;;;;22.76;77.24;101134.58;126246;1099;104143;-78
2021/07/08 05:44:41;;;;;;;17.07;7.50;;;;;;;22.85;77.49;101136.33;126162;1099;104236;-75
2021/07/08 05:47:16;;;;;;;15.30;6.80;;;;;;;22.93;77.11;101140.72;126085;1099;104334;-77
2021/07/08 05:49:50;;;;;;;16.48;7.50;;;;;;;23.00;76.81;101130.90;126177;1099;104158;-79
2021/07/08 05:52:25;;;;;;;18.67;7.27;;;;;;;23.08;76.75;101130.86;126156;1099;104159;-76
2021/07/08 05:54:58;;;;;;;14.57;7.30;;;;;;;23.14;76.66;101123.70;126013;1099;101750;-76
2021/07/08 05:57:29;;;;;;;16.67;7.35;;;;;;;23.21;76.57;101131.69;126098;1099;104235;-78
2021/07/08 06:00:01;;;;;;;13.90;7.07;;;;;;;23.27;76.68;101134.33;126067;1099;104220;-76
2021/07/08 06:02:33;;;;;;;16.47;7.90;;;;;;;23.32;75.74;101132.50;126261;1099;104185;-76
2021/07/08 06:05:09;;;;;;;16.37;7.87;;;;;;;23.37;76.13;101135.14;126068;1099;102796;-78
2021/07/08 06:07:42;;;;;;;14.23;7.23;;;;;;;23.41;75.65;101132.44;126120;1099;104207;-77
2021/07/08 06:10:15;;;;;;;14.27;6.90;;;;;;;23.49;75.36;101140.41;126122;1099;104258;-76
2021/07/08 06:12:46;;;;;;;;;;;;;;;23.55;74.66;101131.45;126153;1097;104153;-77
2021/07/08 06:15:20;;;;;;;16.43;7.07;;;;;;;23.59;75.11;101130.51;126203;1099;104143;-79
2021/07/08 06:17:53;;;;;;;;;;;;;;;23.64;74.70;101140.30;126226;1099;104140;-77
2021/07/08 06:20:28;;;;;;;15.43;6.80;;;;;;;23.66;74.65;101134.92;126104;1099;104162;-77
2021/07/08 06:23:00;;;;;;;13.53;7.37;;;;;;;23.75;75.17;101139.30;126219;1099;104211;-77
2021/07/08 06:25:31;;;;;;;17.77;7.97;;;;;;;23.81;74.10;101142.84;126194;1099;104338;-79
2021/07/08 06:28:07;;;;;;;14.67;7.33;;;;;;;23.90;74.33;101135.64;126278;1097;104188;-79
2021/07/08 06:30:39;;;;;;;15.03;6.72;;;;;;;23.96;74.09;101144.50;126296;1099;104147;-77
2021/07/08 06:33:14;;;;;;;16.20;7.45;;;;;;;24.04;74.05;101144.42;126102;1099;104172;-77
2021/07/08 06:35:48;;;;;;;18.90;7.63;;;;;;;24.12;74.07;101144.35;126236;1099;104245;-79
2021/07/08 06:38:20;;;;;;;18.80;7.87;;;;;;;24.18;74.00;101152.33;126213;1099;104128;-78
2021/07/08 06:40:55;;;;;;;15.07;7.20;;;;;;;24.16;73.46;101146.11;126123;1099;104281;-77
2021/07/08 06:43:28;;;;;;;13.23;6.90;;;;;;;24.20;73.10;101150.55;126190;1099;104867;-76
2021/07/08 06:46:05;;;;;;;14.77;7.20;;;;;;;24.26;73.05;101154.94;126244;1099;104232;-78
2021/07/08 06:48:37;;;;;;;17.17;7.40;;;;;;;24.35;72.10;101152.16;126219;1099;104237;-75
2021/07/08 06:51:10;;;;;;;22.75;7.80;;;;;;;24.47;72.57;101154.70;125929;1098;104162;-75
2021/07/08 06:53:43;;;;;;;14.73;6.90;;;;;;;24.55;72.43;101151.94;126116;1099;104150;-78
2021/07/08 06:56:20;;;;;;;14.90;7.23;;;;;;;24.63;72.27;101159.92;126167;1098;104290;-79
2021/07/08 06:58:56;;;;;;;17.30;8.13;;;;;;;24.69;71.34;101159.85;126049;1099;104281;-78
2021/07/08 07:01:31;;;;;;;13.83;7.77;;;;;;;24.74;71.67;101155.30;126254;1099;104150;-78
2021/07/08 07:04:05;;;;;;;18.80;8.17;;;;;;;24.79;71.43;101153.44;126181;1099;104137;-77
2021/07/08 07:06:41;;;;;;;14.95;7.85;;;;;;;24.86;70.69;101149.78;126179;1098;104252;-75
2021/07/08 07:09:14;;;;;;;15.33;7.93;;;;;;;25.00;71.43;101160.34;126249;1099;104181;-77
2021/07/08 07:11:54;;;;;;;17.67;8.03;;;;;;;25.10;70.81;101153.94;126272;1099;104249;-76
2021/07/08 07:14:28;;;;;;;15.37;7.30;;;;;;;25.23;70.36;101164.51;126235;1099;104216;-76
2021/07/08 07:17:01;;;;;;;17.67;7.43;;;;;;;25.35;70.02;101161.64;126216;1099;104185;-76
2021/07/08 07:19:34;;;;;;;16.17;7.90;;;;;;;25.57;69.72;101162.23;126310;1099;104146;-77
2021/07/08 07:22:07;;;;;;;18.13;7.87;;;;;;;25.80;69.28;101152.88;126196;1099;104171;-76
2021/07/08 07:24:44;;;;;;;15.57;7.57;;;;;;;25.94;69.43;101156.20;126297;1097;104308;-77
2021/07/08 07:27:15;;;;;;;17.83;7.93;;;;;;;26.01;69.42;101163.29;126252;1099;104217;-76
2021/07/08 07:29:46;;;;;;;15.20;7.80;;;;;;;26.14;69.21;101173.83;126305;1099;104162;-77
2021/07/08 07:32:19;;;;;;;15.50;8.10;;;;;;;26.32;68.35;101162.73;126301;1099;104168;-77
2021/07/08 07:34:51;;;;;;;15.53;7.55;;;;;;;26.42;68.22;101163.42;126299;1099;104131;-76
2021/07/08 07:37:23;;;;;;;13.37;6.73;;;;;;;26.48;67.06;101165.13;126135;1099;104146;-75
2021/07/08 07:39:57;;;;;;;;;;;;;;;26.61;66.33;101169.31;126268;1099;104178;-77
2021/07/08 07:42:32;;;;;;;13.38;6.85;;;;;;;26.70;65.62;101168.29;126093;1099;104153;-79
2021/07/08 07:45:06;;;;;;;15.35;7.20;;;;;;;26.97;65.60;101174.88;126266;1099;104133;-79
2021/07/08 07:47:39;;;;;;;16.87;6.93;;;;;;;27.07;66.24;101173.77;126275;1099;104271;-77
2021/07/08 07:50:11;;;;;;;17.03;7.00;;;;;;;27.06;65.17;101171.11;126218;1096;104711;-78
2021/07/08 07:52:44;;;;;;;14.43;7.10;;;;;;;27.11;63.39;101179.96;126069;1099;104179;-77
2021/07/08 07:55:19;;;;;;;17.60;6.97;;;;;;;27.26;64.88;101168.84;126190;1099;104210;-78
2021/07/08 07:57:51;;;;;;;;;;;;;;;27.39;63.07;101164.08;126160;1097;104220;-79
2021/07/08 08:00:55;;;;;;;16.77;7.97;;;;;;;27.50;64.13;101160.25;126151;1099;104633;-76
2021/07/08 08:03:30;;;;;;;;;;;;;;;27.62;59.29;101160.83;126344;1099;104165;-77
2021/07/08 08:08:46;;;;;;;16.27;7.23;;;;;;;28.01;62.67;101154.48;125953;1099;104149;-77
2021/07/08 08:11:21;;;;;;;11.73;6.93;;;;;;;28.07;62.58;101157.02;125979;1099;104377;-77
2021/07/08 08:13:58;;;;;;;15.00;6.80;;;;;;;28.30;62.30;101164.50;125916;1099;104328;-78
2021/07/08 08:16:34;;;;;;;13.83;6.87;;;;;;;28.37;61.54;101157.10;126138;1099;104332;-77
2021/07/08 08:19:05;;;;;;;15.40;7.45;;;;;;;28.45;61.57;101156.89;126110;1099;104288;-75
2021/07/08 08:21:38;;;;;;;13.20;6.90;;;;;;;28.45;61.68;101152.36;126010;1099;104127;-76
2021/07/08 08:24:11;;;;;;;15.67;6.63;;;;;;;28.44;60.76;101156.02;125328;1099;104287;-77
2021/07/08 08:26:57;;;;;;;14.97;6.63;;;;;;;28.37;60.48;101151.70;126109;1099;104428;-77
2021/07/08 08:29:30;;;;;;;14.17;7.30;;;;;;;28.26;60.52;101162.80;126065;1099;104140;-77
2021/07/08 08:32:03;;;;;;;13.38;6.78;;;;;;;28.32;60.95;101153.66;125994;1099;104389;-76
2021/07/08 08:34:35;;;;;;;19.80;6.83;;;;;;;28.44;61.24;101149.74;125872;1099;104354;-77
2021/07/08 08:37:10;;;;;;;14.37;8.10;;;;;;;28.56;61.03;101156.58;126060;1099;104455;-78
2021/07/08 08:39:46;;;;;;;12.40;7.00;;;;;;;28.49;60.43;101151.36;125349;1099;112831;-77
2021/07/08 08:42:19;;;;;;;12.23;6.80;;;;;;;28.62;60.30;101154.61;126066;1099;104614;-79
2021/07/08 08:44:54;;;;;;;10.00;6.50;;;;;;;28.84;60.60;101154.89;126043;1099;104201;-76
2021/07/08 08:47:25;;;;;;;16.07;7.00;;;;;;;28.91;59.76;101155.58;126006;1098;105461;-76
2021/07/08 08:50:01;;;;;;;13.97;6.70;;;;;;;28.95;60.29;101151.86;126194;1099;104668;-76
2021/07/08 08:52:37;;;;;;;15.23;6.87;;;;;;;28.96;58.56;101158.14;126098;1099;104194;-76
2021/07/08 08:55:12;;;;;;;14.83;6.77;;;;;;;28.97;58.77;101155.39;126189;1099;104271;-77
2021/07/08 08:57:46;;;;;;;14.90;6.73;;;;;;;29.11;58.93;101154.06;126256;1099;104269;-77
2021/07/08 09:00:44;;;;;;;15.85;6.80;;;;;;;29.20;58.50;101152.02;126242;1099;108712;-77
2021/07/08 09:03:20;;;;;;;13.77;7.20;;;;;;;29.16;58.11;101153.00;126142;1099;104204;-79
2021/07/08 09:06:01;;;;;;;12.57;6.67;;;;;;;29.22;57.84;101155.54;126235;1099;104216;-78
2021/07/08 09:08:38;;;;;;;17.63;6.63;;;;;;;29.28;57.31;101151.77;126205;1099;105645;-78
2021/07/08 09:11:18;;;;;;;16.20;6.87;;;;;;;29.33;58.21;101152.49;126242;1099;104265;-78
2021/07/08 09:13:59;;;;;;;17.80;6.33;;;;;;;29.60;58.31;101143.53;126282;1099;104179;-77
2021/07/08 09:16:38;;;;;;;13.80;6.50;;;;;;;29.75;56.60;101151.13;126205;1099;104239;-78
2021/07/08 09:19:18;;;;;;;12.47;6.70;;;;;;;29.74;55.95;101146.64;126149;1099;104150;-78
2021/07/08 09:22:01;;;;;;;9.93;6.63;;;;;;;29.78;55.24;101147.41;126131;1098;104268;-77
2021/07/08 09:24:35;;;;;;;13.03;6.57;;;;;;;29.81;55.26;101142.84;125982;1099;104188;-77
2021/07/08 09:27:08;;;;;;;;;;;;;;;29.62;51.25;101142.52;126150;1099;104253;-76
2021/07/08 09:29:43;;;;;;;11.38;6.53;;;;;;;29.50;54.79;101151.95;125284;1102;104312;-78
2021/07/08 09:32:19;;;;;;;11.57;6.67;;;;;;;29.33;55.16;101147.09;125220;1102;104163;-78
2021/07/08 09:34:53;;;;;;;14.27;6.43;;;;;;;29.35;55.60;101139.80;125189;1102;104303;-79
2021/07/08 09:37:30;;;;;;;14.45;6.67;;;;;;;29.42;55.17;101143.22;125143;1102;102659;-78
2021/07/08 09:40:07;;;;;;;10.43;6.50;;;;;;;29.52;55.70;101146.49;125154;1102;104179;-79
2021/07/08 09:42:50;;;;;;;12.73;6.87;;;;;;;29.48;55.09;101139.41;125215;1100;104220;-79
2021/07/08 09:45:25;;;;;;;12.93;6.77;;;;;;;29.54;55.46;101144.61;125195;1102;104172;-77
2021/07/08 09:48:18;;;;;;;13.77;6.40;;;;;;;29.55;55.60;101130.17;125336;1099;104394;-76
2021/07/08 09:50:51;;;;;;;14.57;6.50;;;;;;;29.43;55.75;101131.45;125790;1099;104203;-77
2021/07/08 09:53:25;;;;;;;14.93;6.17;;;;;;;29.48;56.00;101118.69;126123;1099;104143;-77
2021/07/08 09:56:20;;;;;;;9.83;6.27;;;;;;;29.58;55.85;101135.47;125485;1099;104424;-78
2021/07/08 09:58:59;;;;;;;13.23;6.30;;;;;;;29.74;55.37;101125.02;126220;1099;104264;-77
2021/07/08 10:01:42;;;;;;;14.37;6.43;;;;;;;29.84;55.90;101122.89;125939;1099;104128;-77
2021/07/08 10:04:15;;;;;;;14.57;6.47;;;;;;;29.84;55.34;101120.19;126038;1097;104240;-77
2021/07/08 10:06:48;;;;;;;12.43;5.87;;;;;;;29.77;54.81;101119.50;126143;1098;104217;-77
2021/07/08 10:09:24;;;;;;;13.55;6.55;;;;;;;29.72;55.19;101121.48;126192;1099;104181;-76
2021/07/08 10:12:02;;;;;;;14.57;6.27;;;;;;;29.63;55.16;101119.09;126034;1099;110788;-76
2021/07/08 10:14:33;;;;;;;13.97;6.00;;;;;;;29.52;55.05;101119.45;125954;1099;104274;-76
2021/07/08 10:17:07;;;;;;;14.83;6.67;;;;;;;29.39;55.39;101125.27;125851;1099;104191;-76
2021/07/08 10:19:43;;;;;;;13.30;6.73;;;;;;;29.32;55.69;101123.69;125839;1098;104194;-76
2021/07/08 10:22:22;;;;;;;13.77;6.27;;;;;;;29.42;55.25;101126.09;125877;1099;104331;-76
2021/07/08 10:24:53;;;;;;;10.97;6.23;;;;;;;29.42;55.28;101120.69;125991;1099;104178;-76
2021/07/08 10:27:25;;;;;;;14.17;6.40;;;;;;;29.36;54.92;101117.26;125957;1099;104268;-76
2021/07/08 10:29:58;;;;;;;13.78;6.15;;;;;;;29.36;54.95;101119.09;126150;1099;104659;-76
2021/07/08 10:32:32;;;;;;;13.27;6.27;;;;;;;29.31;53.24;101121.94;126220;1099;108415;-75
2021/07/08 10:35:40;;;;;;;13.20;6.67;;;;;;;29.26;54.51;101118.48;126122;1099;104130;-76
2021/07/08 10:38:35;;;;;;;14.50;6.57;;;;;;;29.24;54.25;101122.19;125160;1102;104245;-75
2021/07/08 10:41:39;;;;;;;14.40;6.40;;;;;;;29.24;54.53;101114.08;125089;1102;104223;-76
2021/07/08 10:44:34;;;;;;;13.57;6.43;;;;;;;29.35;54.08;101120.88;125177;1102;104395;-75
2021/07/08 10:47:07;;;;;;;12.40;6.13;;;;;;;29.44;52.93;101113.43;125131;1102;104142;-76
2021/07/08 10:49:40;;;;;;;16.30;6.17;;;;;;;29.71;53.09;101112.47;125226;1102;104194;-76
2021/07/08 10:52:14;;;;;;;11.27;6.17;;;;;;;29.92;52.83;101112.71;125044;1102;104383;-78
2021/07/08 10:54:52;;;;;;;10.18;6.25;;;;;;;29.88;52.45;101106.50;125172;1102;104181;-77
2021/07/08 10:57:39;;;;;;;12.15;6.10;;;;;;;29.81;53.03;101112.19;125197;1102;104182;-77
2021/07/08 11:00:35;;;;;;;13.95;6.50;;;;;;;29.80;53.13;101107.73;125173;1102;104457;-78
2021/07/08 11:03:07;;;;;;;16.30;6.50;;;;;;;29.69;53.33;101099.95;125220;1102;105007;-77
2021/07/08 11:05:57;;;;;;;14.37;6.10;;;;;;;29.63;53.53;101094.76;125251;1102;104249;-76
2021/07/08 11:08:56;;;;;;;15.30;6.47;;;;;;;29.43;53.39;101098.13;125273;1102;104364;-76
2021/07/08 11:11:55;;;;;;;13.70;6.60;;;;;;;29.24;52.87;101097.87;126160;1099;104274;-76
2021/07/08 11:14:31;;;;;;;13.27;6.20;;;;;;;29.18;52.76;101090.80;126289;1099;104136;-77
2021/07/08 11:17:17;;;;;;;15.33;6.67;;;;;;;29.16;52.97;101089.98;126298;1097;104143;-76
2021/07/08 11:19:49;;;;;;;11.00;6.17;;;;;;;29.24;52.56;101098.74;126267;1099;104326;-78
2021/07/08 11:22:32;;;;;;;17.50;6.53;;;;;;;29.42;52.48;101088.25;126259;1099;104245;-76
2021/07/08 11:25:06;;;;;;;17.35;6.95;;;;;;;29.55;51.39;101095.02;126329;1099;102911;-77
2021/07/08 11:27:40;;;;;;;12.17;6.20;;;;;;;29.51;51.97;101091.52;126315;1099;104182;-78
2021/07/08 11:30:30;;;;;;;21.25;6.35;;;;;;;29.38;51.99;101085.64;126255;1099;104162;-76
2021/07/08 11:33:07;;;;;;;15.13;6.87;;;;;;;29.28;51.77;101077.89;126170;1099;104137;-77
2021/07/08 11:35:41;;;;;;;14.60;6.67;;;;;;;29.11;51.57;101087.42;126158;1099;104716;-77
2021/07/08 11:38:24;;;;;;;14.87;6.80;;;;;;;29.01;51.66;101080.53;126109;1099;104133;-78